sensor_id;sensor_type;location;lat;lon;timestamp;P1;durP1;ratioP1;P2;durP2;ratioP2
28481;SDS011;15703;49.588;6.260;2023-05-16T00:00:48;2.67;;;2.40;;
28481;SDS011;15703;49.588;6.260;2023-05-16T00:03:13;3.63;;;2.73;;
28481;SDS011;15703;49.588;6.260;2023-05-16T00:05:36;2.97;;;2.70;;
28481;SDS011;15703;49.588;6.260;2023-05-16T00:07:59;2.70;;;2.50;;
28481;SDS011;15703;49.588;6.260;2023-05-16T00:10:21;2.90;;;2.53;;
28481;SDS011;15703;49.588;6.260;2023-05-16T00:12:44;3.40;;;2.70;;
28481;SDS011;15703;49.588;6.260;2023-05-16T00:15:10;3.43;;;2.30;;
28481;SDS011;15703;49.588;6.260;2023-05-16T00:17:35;3.03;;;2.73;;
28481;SDS011;15703;49.588;6.260;2023-05-16T00:20:01;2.53;;;2.33;;
28481;SDS011;15703;49.588;6.260;2023-05-16T00:22:31;3.73;;;2.57;;
28481;SDS011;15703;49.588;6.260;2023-05-16T00:24:53;3.10;;;2.60;;
28481;SDS011;15703;49.588;6.260;2023-05-16T00:27:16;2.73;;;2.13;;
28481;SDS011;15703;49.588;6.260;2023-05-16T00:29:39;3.53;;;2.43;;
28481;SDS011;15703;49.588;6.260;2023-05-16T00:32:01;3.40;;;2.57;;
28481;SDS011;15703;49.588;6.260;2023-05-16T00:34:23;3.03;;;2.70;;
28481;SDS011;15703;49.588;6.260;2023-05-16T00:36:46;3.60;;;2.80;;
28481;SDS011;15703;49.588;6.260;2023-05-16T00:39:08;3.77;;;2.60;;
28481;SDS011;15703;49.588;6.260;2023-05-16T00:41:33;3.07;;;2.40;;
28481;SDS011;15703;49.588;6.260;2023-05-16T00:43:55;4.50;;;2.70;;
28481;SDS011;15703;49.588;6.260;2023-05-16T00:46:17;3.10;;;2.80;;
28481;SDS011;15703;49.588;6.260;2023-05-16T00:48:40;2.43;;;2.23;;
28481;SDS011;15703;49.588;6.260;2023-05-16T00:51:02;3.03;;;2.13;;
28481;SDS011;15703;49.588;6.260;2023-05-16T00:53:29;2.40;;;2.20;;
28481;SDS011;15703;49.588;6.260;2023-05-16T00:55:51;3.03;;;2.13;;
28481;SDS011;15703;49.588;6.260;2023-05-16T00:58:14;2.93;;;2.63;;
28481;SDS011;15703;49.588;6.260;2023-05-16T01:00:38;2.00;;;1.90;;
28481;SDS011;15703;49.588;6.260;2023-05-16T01:03:01;2.87;;;2.13;;
28481;SDS011;15703;49.588;6.260;2023-05-16T01:05:25;2.23;;;2.07;;
28481;SDS011;15703;49.588;6.260;2023-05-16T01:07:47;2.30;;;1.97;;
28481;SDS011;15703;49.588;6.260;2023-05-16T01:10:10;2.90;;;1.97;;
28481;SDS011;15703;49.588;6.260;2023-05-16T01:12:36;2.63;;;2.00;;
28481;SDS011;15703;49.588;6.260;2023-05-16T01:17:43;2.10;;;1.90;;
28481;SDS011;15703;49.588;6.260;2023-05-16T01:27:56;2.10;;;1.90;;
28481;SDS011;15703;49.588;6.260;2023-05-16T01:30:18;2.63;;;1.83;;
28481;SDS011;15703;49.588;6.260;2023-05-16T01:32:41;1.97;;;1.87;;
28481;SDS011;15703;49.588;6.260;2023-05-16T01:35:03;1.70;;;1.50;;
28481;SDS011;15703;49.588;6.260;2023-05-16T01:37:28;3.30;;;2.00;;
28481;SDS011;15703;49.588;6.260;2023-05-16T01:42:18;2.07;;;1.87;;
28481;SDS011;15703;49.588;6.260;2023-05-16T01:44:44;1.87;;;1.73;;
28481;SDS011;15703;49.588;6.260;2023-05-16T01:47:10;3.00;;;1.90;;
28481;SDS011;15703;49.588;6.260;2023-05-16T01:49:34;4.07;;;2.23;;
28481;SDS011;15703;49.588;6.260;2023-05-16T01:51:59;3.27;;;2.07;;
28481;SDS011;15703;49.588;6.260;2023-05-16T01:54:23;2.03;;;1.80;;
28481;SDS011;15703;49.588;6.260;2023-05-16T01:56:50;3.53;;;2.10;;
28481;SDS011;15703;49.588;6.260;2023-05-16T01:59:13;2.00;;;1.80;;
28481;SDS011;15703;49.588;6.260;2023-05-16T02:01:35;2.07;;;1.50;;
28481;SDS011;15703;49.588;6.260;2023-05-16T02:03:58;2.37;;;2.00;;
28481;SDS011;15703;49.588;6.260;2023-05-16T02:06:20;1.93;;;1.73;;
28481;SDS011;15703;49.588;6.260;2023-05-16T02:08:43;2.83;;;2.20;;
28481;SDS011;15703;49.588;6.260;2023-05-16T02:11:06;1.90;;;1.77;;
28481;SDS011;15703;49.588;6.260;2023-05-16T02:13:28;3.60;;;2.20;;
28481;SDS011;15703;49.588;6.260;2023-05-16T02:15:56;2.50;;;2.30;;
28481;SDS011;15703;49.588;6.260;2023-05-16T02:18:18;2.60;;;1.83;;
28481;SDS011;15703;49.588;6.260;2023-05-16T02:20:41;2.30;;;2.10;;
28481;SDS011;15703;49.588;6.260;2023-05-16T02:23:03;2.53;;;2.33;;
28481;SDS011;15703;49.588;6.260;2023-05-16T02:25:25;3.60;;;2.27;;
28481;SDS011;15703;49.588;6.260;2023-05-16T02:27:48;4.93;;;2.33;;
28481;SDS011;15703;49.588;6.260;2023-05-16T02:30:10;4.70;;;2.30;;
28481;SDS011;15703;49.588;6.260;2023-05-16T02:32:33;2.43;;;2.23;;
28481;SDS011;15703;49.588;6.260;2023-05-16T02:34:56;3.33;;;2.30;;
28481;SDS011;15703;49.588;6.260;2023-05-16T02:37:18;2.43;;;1.90;;
28481;SDS011;15703;49.588;6.260;2023-05-16T02:39:42;2.60;;;2.40;;
28481;SDS011;15703;49.588;6.260;2023-05-16T02:42:05;3.43;;;2.50;;
28481;SDS011;15703;49.588;6.260;2023-05-16T02:44:28;2.73;;;2.10;;
28481;SDS011;15703;49.588;6.260;2023-05-16T02:46:52;2.27;;;2.07;;
28481;SDS011;15703;49.588;6.260;2023-05-16T02:49:14;2.73;;;1.97;;
28481;SDS011;15703;49.588;6.260;2023-05-16T02:51:38;2.93;;;2.27;;
28481;SDS011;15703;49.588;6.260;2023-05-16T02:54:00;3.87;;;2.10;;
28481;SDS011;15703;49.588;6.260;2023-05-16T02:56:23;4.90;;;2.20;;
28481;SDS011;15703;49.588;6.260;2023-05-16T02:58:46;2.10;;;2.00;;
28481;SDS011;15703;49.588;6.260;2023-05-16T03:01:08;2.37;;;2.20;;
28481;SDS011;15703;49.588;6.260;2023-05-16T03:03:31;3.77;;;2.20;;
28481;SDS011;15703;49.588;6.260;2023-05-16T03:05:55;2.33;;;2.10;;
28481;SDS011;15703;49.588;6.260;2023-05-16T03:08:17;2.27;;;2.17;;
28481;SDS011;15703;49.588;6.260;2023-05-16T03:10:40;3.00;;;2.63;;
28481;SDS011;15703;49.588;6.260;2023-05-16T03:13:02;4.67;;;2.60;;
28481;SDS011;15703;49.588;6.260;2023-05-16T03:15:25;2.70;;;2.50;;
28481;SDS011;15703;49.588;6.260;2023-05-16T03:17:48;4.20;;;2.73;;
28481;SDS011;15703;49.588;6.260;2023-05-16T03:20:10;3.03;;;2.67;;
28481;SDS011;15703;49.588;6.260;2023-05-16T03:22:33;2.60;;;2.40;;
28481;SDS011;15703;49.588;6.260;2023-05-16T03:24:55;3.67;;;2.57;;
28481;SDS011;15703;49.588;6.260;2023-05-16T03:27:18;3.70;;;3.27;;
28481;SDS011;15703;49.588;6.260;2023-05-16T03:29:40;3.13;;;2.73;;
28481;SDS011;15703;49.588;6.260;2023-05-16T03:32:02;4.27;;;2.77;;
28481;SDS011;15703;49.588;6.260;2023-05-16T03:34:25;3.27;;;3.00;;
28481;SDS011;15703;49.588;6.260;2023-05-16T03:36:48;3.50;;;3.10;;
28481;SDS011;15703;49.588;6.260;2023-05-16T03:39:10;4.70;;;2.90;;
28481;SDS011;15703;49.588;6.260;2023-05-16T03:41:33;3.27;;;3.07;;
28481;SDS011;15703;49.588;6.260;2023-05-16T03:43:55;4.07;;;3.07;;
28481;SDS011;15703;49.588;6.260;2023-05-16T03:46:17;4.13;;;2.60;;
28481;SDS011;15703;49.588;6.260;2023-05-16T03:48:40;5.40;;;2.90;;
28481;SDS011;15703;49.588;6.260;2023-05-16T03:51:02;3.10;;;2.53;;
28481;SDS011;15703;49.588;6.260;2023-05-16T03:53:24;5.30;;;3.20;;
28481;SDS011;15703;49.588;6.260;2023-05-16T03:55:47;2.70;;;2.50;;
28481;SDS011;15703;49.588;6.260;2023-05-16T03:58:09;2.73;;;2.50;;
28481;SDS011;15703;49.588;6.260;2023-05-16T04:00:32;2.50;;;2.27;;
28481;SDS011;15703;49.588;6.260;2023-05-16T04:02:54;2.23;;;2.07;;
28481;SDS011;15703;49.588;6.260;2023-05-16T04:05:17;3.03;;;2.83;;
28481;SDS011;15703;49.588;6.260;2023-05-16T04:07:39;2.70;;;2.13;;
28481;SDS011;15703;49.588;6.260;2023-05-16T04:10:02;3.33;;;2.60;;
28481;SDS011;15703;49.588;6.260;2023-05-16T04:12:24;3.60;;;2.47;;
28481;SDS011;15703;49.588;6.260;2023-05-16T04:14:47;3.00;;;2.43;;
28481;SDS011;15703;49.588;6.260;2023-05-16T04:17:09;3.00;;;2.30;;
28481;SDS011;15703;49.588;6.260;2023-05-16T04:19:33;3.57;;;2.40;;
28481;SDS011;15703;49.588;6.260;2023-05-16T04:21:55;3.00;;;2.30;;
28481;SDS011;15703;49.588;6.260;2023-05-16T04:24:17;4.47;;;2.53;;
28481;SDS011;15703;49.588;6.260;2023-05-16T04:26:40;3.27;;;2.23;;
28481;SDS011;15703;49.588;6.260;2023-05-16T04:29:02;5.37;;;2.40;;
28481;SDS011;15703;49.588;6.260;2023-05-16T04:31:26;2.40;;;2.20;;
28481;SDS011;15703;49.588;6.260;2023-05-16T04:33:48;3.17;;;2.80;;
28481;SDS011;15703;49.588;6.260;2023-05-16T04:36:10;3.83;;;2.53;;
28481;SDS011;15703;49.588;6.260;2023-05-16T04:38:33;4.00;;;2.10;;
28481;SDS011;15703;49.588;6.260;2023-05-16T04:40:56;4.33;;;2.60;;
28481;SDS011;15703;49.588;6.260;2023-05-16T04:43:19;3.90;;;2.70;;
28481;SDS011;15703;49.588;6.260;2023-05-16T04:45:41;2.67;;;2.33;;
28481;SDS011;15703;49.588;6.260;2023-05-16T04:48:04;3.27;;;2.50;;
28481;SDS011;15703;49.588;6.260;2023-05-16T04:50:26;8.73;;;2.50;;
28481;SDS011;15703;49.588;6.260;2023-05-16T04:52:49;3.67;;;2.73;;
28481;SDS011;15703;49.588;6.260;2023-05-16T04:55:11;3.13;;;2.63;;
28481;SDS011;15703;49.588;6.260;2023-05-16T04:57:34;2.90;;;2.50;;
28481;SDS011;15703;49.588;6.260;2023-05-16T04:59:56;5.43;;;2.93;;
28481;SDS011;15703;49.588;6.260;2023-05-16T05:02:19;4.20;;;2.50;;
28481;SDS011;15703;49.588;6.260;2023-05-16T05:04:41;4.10;;;2.80;;
28481;SDS011;15703;49.588;6.260;2023-05-16T05:07:04;4.27;;;2.40;;
28481;SDS011;15703;49.588;6.260;2023-05-16T05:09:27;4.07;;;2.93;;
28481;SDS011;15703;49.588;6.260;2023-05-16T05:11:49;3.23;;;2.60;;
28481;SDS011;15703;49.588;6.260;2023-05-16T05:14:13;3.97;;;3.20;;
28481;SDS011;15703;49.588;6.260;2023-05-16T05:16:36;3.60;;;2.87;;
28481;SDS011;15703;49.588;6.260;2023-05-16T05:18:58;7.47;;;3.23;;
28481;SDS011;15703;49.588;6.260;2023-05-16T05:21:21;5.53;;;3.27;;
28481;SDS011;15703;49.588;6.260;2023-05-16T05:23:45;6.87;;;3.33;;
28481;SDS011;15703;49.588;6.260;2023-05-16T05:26:09;5.87;;;3.30;;
28481;SDS011;15703;49.588;6.260;2023-05-16T05:28:32;6.57;;;3.40;;
28481;SDS011;15703;49.588;6.260;2023-05-16T05:30:54;3.70;;;3.03;;
28481;SDS011;15703;49.588;6.260;2023-05-16T05:33:17;5.63;;;3.33;;
28481;SDS011;15703;49.588;6.260;2023-05-16T05:35:44;8.33;;;3.50;;
28481;SDS011;15703;49.588;6.260;2023-05-16T05:38:06;8.13;;;3.60;;
28481;SDS011;15703;49.588;6.260;2023-05-16T05:40:28;6.30;;;3.40;;
28481;SDS011;15703;49.588;6.260;2023-05-16T05:42:51;6.60;;;3.03;;
28481;SDS011;15703;49.588;6.260;2023-05-16T05:45:14;4.40;;;2.87;;
28481;SDS011;15703;49.588;6.260;2023-05-16T05:47:36;6.33;;;3.40;;
28481;SDS011;15703;49.588;6.260;2023-05-16T05:49:59;5.97;;;3.73;;
28481;SDS011;15703;49.588;6.260;2023-05-16T05:52:22;6.40;;;3.63;;
28481;SDS011;15703;49.588;6.260;2023-05-16T05:54:45;6.57;;;3.73;;
28481;SDS011;15703;49.588;6.260;2023-05-16T05:57:08;5.93;;;3.30;;
28481;SDS011;15703;49.588;6.260;2023-05-16T05:59:31;6.23;;;3.80;;
28481;SDS011;15703;49.588;6.260;2023-05-16T06:01:54;7.60;;;3.60;;
28481;SDS011;15703;49.588;6.260;2023-05-16T06:04:20;7.57;;;3.83;;
28481;SDS011;15703;49.588;6.260;2023-05-16T06:06:42;7.73;;;3.83;;
28481;SDS011;15703;49.588;6.260;2023-05-16T06:09:05;5.20;;;3.47;;
28481;SDS011;15703;49.588;6.260;2023-05-16T06:11:27;9.80;;;4.00;;
28481;SDS011;15703;49.588;6.260;2023-05-16T06:13:53;5.97;;;3.37;;
28481;SDS011;15703;49.588;6.260;2023-05-16T06:16:15;6.27;;;3.60;;
28481;SDS011;15703;49.588;6.260;2023-05-16T06:18:37;6.13;;;3.40;;
28481;SDS011;15703;49.588;6.260;2023-05-16T06:21:00;7.10;;;3.20;;
28481;SDS011;15703;49.588;6.260;2023-05-16T06:23:22;8.37;;;3.70;;
28481;SDS011;15703;49.588;6.260;2023-05-16T06:25:44;5.40;;;3.10;;
28481;SDS011;15703;49.588;6.260;2023-05-16T06:28:06;7.53;;;3.73;;
28481;SDS011;15703;49.588;6.260;2023-05-16T06:30:29;9.93;;;3.17;;
28481;SDS011;15703;49.588;6.260;2023-05-16T06:32:51;6.07;;;3.10;;
28481;SDS011;15703;49.588;6.260;2023-05-16T06:35:13;6.83;;;3.30;;
28481;SDS011;15703;49.588;6.260;2023-05-16T06:37:35;6.77;;;2.93;;
28481;SDS011;15703;49.588;6.260;2023-05-16T06:39:58;6.53;;;3.17;;
28481;SDS011;15703;49.588;6.260;2023-05-16T06:42:20;5.23;;;3.10;;
28481;SDS011;15703;49.588;6.260;2023-05-16T06:44:43;6.73;;;3.50;;
28481;SDS011;15703;49.588;6.260;2023-05-16T06:47:05;9.30;;;3.40;;
28481;SDS011;15703;49.588;6.260;2023-05-16T06:49:28;7.30;;;3.17;;
28481;SDS011;15703;49.588;6.260;2023-05-16T06:51:50;6.07;;;3.30;;
28481;SDS011;15703;49.588;6.260;2023-05-16T06:54:13;8.03;;;3.07;;
28481;SDS011;15703;49.588;6.260;2023-05-16T06:56:35;8.93;;;3.50;;
28481;SDS011;15703;49.588;6.260;2023-05-16T06:58:57;7.77;;;3.50;;
28481;SDS011;15703;49.588;6.260;2023-05-16T07:01:22;7.77;;;3.03;;
28481;SDS011;15703;49.588;6.260;2023-05-16T07:03:44;4.60;;;3.30;;
28481;SDS011;15703;49.588;6.260;2023-05-16T07:06:07;4.80;;;3.10;;
28481;SDS011;15703;49.588;6.260;2023-05-16T07:08:29;8.60;;;2.90;;
28481;SDS011;15703;49.588;6.260;2023-05-16T07:10:51;7.47;;;3.50;;
28481;SDS011;15703;49.588;6.260;2023-05-16T07:13:14;9.10;;;3.60;;
28481;SDS011;15703;49.588;6.260;2023-05-16T07:15:36;6.80;;;3.40;;
28481;SDS011;15703;49.588;6.260;2023-05-16T07:17:59;9.03;;;3.57;;
28481;SDS011;15703;49.588;6.260;2023-05-16T07:20:21;7.47;;;3.83;;
28481;SDS011;15703;49.588;6.260;2023-05-16T07:22:44;6.37;;;2.57;;
28481;SDS011;15703;49.588;6.260;2023-05-16T07:25:06;8.53;;;2.80;;
28481;SDS011;15703;49.588;6.260;2023-05-16T07:27:32;5.20;;;2.90;;
28481;SDS011;15703;49.588;6.260;2023-05-16T07:29:55;11.03;;;2.80;;
28481;SDS011;15703;49.588;6.260;2023-05-16T07:32:17;7.77;;;2.70;;
28481;SDS011;15703;49.588;6.260;2023-05-16T07:34:40;7.97;;;2.77;;
28481;SDS011;15703;49.588;6.260;2023-05-16T07:37:02;5.03;;;2.13;;
28481;SDS011;15703;49.588;6.260;2023-05-16T07:39:26;4.77;;;1.73;;
28481;SDS011;15703;49.588;6.260;2023-05-16T07:41:49;7.63;;;2.13;;
28481;SDS011;15703;49.588;6.260;2023-05-16T07:44:11;4.30;;;1.90;;
28481;SDS011;15703;49.588;6.260;2023-05-16T07:46:34;9.53;;;2.00;;
28481;SDS011;15703;49.588;6.260;2023-05-16T07:48:56;4.57;;;1.70;;
28481;SDS011;15703;49.588;6.260;2023-05-16T07:51:18;5.13;;;1.77;;
28481;SDS011;15703;49.588;6.260;2023-05-16T07:53:41;3.73;;;1.60;;
28481;SDS011;15703;49.588;6.260;2023-05-16T07:56:03;5.23;;;1.57;;
28481;SDS011;15703;49.588;6.260;2023-05-16T07:58:40;6.17;;;1.73;;
28481;SDS011;15703;49.588;6.260;2023-05-16T08:01:03;6.93;;;1.63;;
28481;SDS011;15703;49.588;6.260;2023-05-16T08:03:25;5.90;;;1.97;;
28481;SDS011;15703;49.588;6.260;2023-05-16T08:05:48;5.00;;;1.30;;
28481;SDS011;15703;49.588;6.260;2023-05-16T08:08:12;4.60;;;2.03;;
28481;SDS011;15703;49.588;6.260;2023-05-16T08:10:34;5.50;;;1.40;;
28481;SDS011;15703;49.588;6.260;2023-05-16T08:12:56;5.23;;;1.60;;
28481;SDS011;15703;49.588;6.260;2023-05-16T08:15:18;3.13;;;1.50;;
28481;SDS011;15703;49.588;6.260;2023-05-16T08:17:41;2.70;;;1.50;;
28481;SDS011;15703;49.588;6.260;2023-05-16T08:20:04;5.20;;;1.73;;
28481;SDS011;15703;49.588;6.260;2023-05-16T08:22:26;5.43;;;1.43;;
28481;SDS011;15703;49.588;6.260;2023-05-16T08:24:49;6.30;;;1.77;;
28481;SDS011;15703;49.588;6.260;2023-05-16T08:27:11;6.37;;;1.70;;
28481;SDS011;15703;49.588;6.260;2023-05-16T08:29:33;4.47;;;1.40;;
28481;SDS011;15703;49.588;6.260;2023-05-16T08:31:56;7.17;;;1.47;;
28481;SDS011;15703;49.588;6.260;2023-05-16T08:34:18;6.00;;;1.93;;
28481;SDS011;15703;49.588;6.260;2023-05-16T08:36:41;5.00;;;1.53;;
28481;SDS011;15703;49.588;6.260;2023-05-16T08:39:03;6.33;;;1.30;;
28481;SDS011;15703;49.588;6.260;2023-05-16T08:41:28;5.77;;;1.60;;
28481;SDS011;15703;49.588;6.260;2023-05-16T08:43:50;4.80;;;1.40;;
28481;SDS011;15703;49.588;6.260;2023-05-16T08:46:13;4.90;;;1.60;;
28481;SDS011;15703;49.588;6.260;2023-05-16T08:48:35;7.67;;;1.60;;
28481;SDS011;15703;49.588;6.260;2023-05-16T08:51:02;6.40;;;1.33;;
28481;SDS011;15703;49.588;6.260;2023-05-16T08:53:30;5.70;;;1.70;;
28481;SDS011;15703;49.588;6.260;2023-05-16T08:55:53;4.77;;;1.63;;
28481;SDS011;15703;49.588;6.260;2023-05-16T08:58:17;4.60;;;1.33;;
28481;SDS011;15703;49.588;6.260;2023-05-16T09:00:40;6.67;;;2.03;;
28481;SDS011;15703;49.588;6.260;2023-05-16T09:03:36;6.70;;;1.63;;
28481;SDS011;15703;49.588;6.260;2023-05-16T09:06:03;6.10;;;1.57;;
28481;SDS011;15703;49.588;6.260;2023-05-16T09:08:46;4.03;;;1.73;;
28481;SDS011;15703;49.588;6.260;2023-05-16T09:11:09;6.53;;;1.33;;
28481;SDS011;15703;49.588;6.260;2023-05-16T09:13:31;3.70;;;1.23;;
28481;SDS011;15703;49.588;6.260;2023-05-16T09:16:06;3.30;;;1.20;;
28481;SDS011;15703;49.588;6.260;2023-05-16T09:18:29;4.95;;;1.38;;
28481;SDS011;15703;49.588;6.260;2023-05-16T09:21:00;5.22;;;1.35;;
28481;SDS011;15703;49.588;6.260;2023-05-16T09:23:23;4.93;;;1.30;;
28481;SDS011;15703;49.588;6.260;2023-05-16T09:25:57;4.28;;;1.40;;
28481;SDS011;15703;49.588;6.260;2023-05-16T09:28:20;6.45;;;2.00;;
28481;SDS011;15703;49.588;6.260;2023-05-16T09:31:24;3.85;;;1.13;;
28481;SDS011;15703;49.588;6.260;2023-05-16T09:33:59;7.63;;;1.20;;
28481;SDS011;15703;49.588;6.260;2023-05-16T09:36:22;3.95;;;1.38;;
28481;SDS011;15703;49.588;6.260;2023-05-16T09:38:44;3.50;;;1.33;;
28481;SDS011;15703;49.588;6.260;2023-05-16T09:41:08;6.15;;;1.40;;
28481;SDS011;15703;49.588;6.260;2023-05-16T09:43:36;7.82;;;1.30;;
28481;SDS011;15703;49.588;6.260;2023-05-16T09:46:41;3.92;;;1.55;;
28481;SDS011;15703;49.588;6.260;2023-05-16T09:49:43;2.10;;;1.00;;
28481;SDS011;15703;49.588;6.260;2023-05-16T09:52:15;4.28;;;1.23;;
28481;SDS011;15703;49.588;6.260;2023-05-16T09:55:10;4.40;;;1.38;;
28481;SDS011;15703;49.588;6.260;2023-05-16T10:00:59;2.90;;;1.25;;
28481;SDS011;15703;49.588;6.260;2023-05-16T10:03:22;6.38;;;1.58;;
28481;SDS011;15703;49.588;6.260;2023-05-16T10:06:23;5.72;;;1.55;;
28481;SDS011;15703;49.588;6.260;2023-05-16T10:08:46;3.30;;;1.00;;
28481;SDS011;15703;49.588;6.260;2023-05-16T10:11:09;3.92;;;1.20;;
28481;SDS011;15703;49.588;6.260;2023-05-16T10:13:55;6.78;;;1.67;;
28481;SDS011;15703;49.588;6.260;2023-05-16T10:16:45;3.70;;;1.20;;
28481;SDS011;15703;49.588;6.260;2023-05-16T10:19:10;4.63;;;1.77;;
28481;SDS011;15703;49.588;6.260;2023-05-16T10:21:35;4.63;;;1.52;;
28481;SDS011;15703;49.588;6.260;2023-05-16T10:24:05;4.18;;;1.23;;
28481;SDS011;15703;49.588;6.260;2023-05-16T10:26:51;5.97;;;1.40;;
28481;SDS011;15703;49.588;6.260;2023-05-16T10:29:17;2.85;;;1.10;;
28481;SDS011;15703;49.588;6.260;2023-05-16T10:31:48;3.08;;;1.13;;
28481;SDS011;15703;49.588;6.260;2023-05-16T10:34:53;3.40;;;1.20;;
28481;SDS011;15703;49.588;6.260;2023-05-16T10:38:02;4.13;;;1.27;;
28481;SDS011;15703;49.588;6.260;2023-05-16T10:40:28;7.03;;;1.35;;
28481;SDS011;15703;49.588;6.260;2023-05-16T10:42:55;3.83;;;1.10;;
28481;SDS011;15703;49.588;6.260;2023-05-16T10:45:18;4.20;;;1.27;;
28481;SDS011;15703;49.588;6.260;2023-05-16T10:53:35;3.05;;;1.02;;
28481;SDS011;15703;49.588;6.260;2023-05-16T10:59:23;5.97;;;1.42;;
28481;SDS011;15703;49.588;6.260;2023-05-16T11:01:50;5.05;;;1.55;;
28481;SDS011;15703;49.588;6.260;2023-05-16T11:04:14;4.50;;;1.38;;
28481;SDS011;15703;49.588;6.260;2023-05-16T11:06:49;3.50;;;1.25;;
28481;SDS011;15703;49.588;6.260;2023-05-16T11:14:14;2.70;;;0.95;;
28481;SDS011;15703;49.588;6.260;2023-05-16T11:16:39;6.15;;;1.15;;
28481;SDS011;15703;49.588;6.260;2023-05-16T11:19:17;4.65;;;1.58;;
28481;SDS011;15703;49.588;6.260;2023-05-16T11:24:48;2.05;;;0.90;;
28481;SDS011;15703;49.588;6.260;2023-05-16T11:27:42;4.80;;;1.23;;
28481;SDS011;15703;49.588;6.260;2023-05-16T11:30:45;5.05;;;1.25;;
28481;SDS011;15703;49.588;6.260;2023-05-16T11:33:08;4.75;;;1.20;;
28481;SDS011;15703;49.588;6.260;2023-05-16T11:36:00;4.85;;;1.08;;
28481;SDS011;15703;49.588;6.260;2023-05-16T11:38:35;2.50;;;0.82;;
28481;SDS011;15703;49.588;6.260;2023-05-16T11:41:06;3.22;;;0.98;;
28481;SDS011;15703;49.588;6.260;2023-05-16T11:43:37;2.47;;;0.93;;
28481;SDS011;15703;49.588;6.260;2023-05-16T11:46:00;5.32;;;1.00;;
28481;SDS011;15703;49.588;6.260;2023-05-16T11:48:23;3.65;;;1.25;;
28481;SDS011;15703;49.588;6.260;2023-05-16T11:50:56;2.58;;;1.30;;
28481;SDS011;15703;49.588;6.260;2023-05-16T11:53:19;6.93;;;1.25;;
28481;SDS011;15703;49.588;6.260;2023-05-16T11:55:57;4.28;;;1.30;;
28481;SDS011;15703;49.588;6.260;2023-05-16T11:58:41;4.65;;;1.25;;
28481;SDS011;15703;49.588;6.260;2023-05-16T12:01:13;5.50;;;1.25;;
28481;SDS011;15703;49.588;6.260;2023-05-16T12:03:36;2.38;;;1.02;;
28481;SDS011;15703;49.588;6.260;2023-05-16T12:05:59;3.45;;;1.20;;
28481;SDS011;15703;49.588;6.260;2023-05-16T12:08:22;4.90;;;1.40;;
28481;SDS011;15703;49.588;6.260;2023-05-16T12:10:48;3.05;;;1.27;;
28481;SDS011;15703;49.588;6.260;2023-05-16T12:16:00;4.55;;;1.42;;
28481;SDS011;15703;49.588;6.260;2023-05-16T12:18:22;4.57;;;1.52;;
28481;SDS011;15703;49.588;6.260;2023-05-16T12:24:18;3.25;;;1.10;;
28481;SDS011;15703;49.588;6.260;2023-05-16T12:27:21;3.38;;;1.13;;
28481;SDS011;15703;49.588;6.260;2023-05-16T12:30:31;3.55;;;1.48;;
28481;SDS011;15703;49.588;6.260;2023-05-16T12:32:57;3.92;;;1.08;;
28481;SDS011;15703;49.588;6.260;2023-05-16T12:36:02;6.22;;;1.45;;
28481;SDS011;15703;49.588;6.260;2023-05-16T12:38:29;2.85;;;0.90;;
28481;SDS011;15703;49.588;6.260;2023-05-16T12:40:56;1.85;;;0.98;;
28481;SDS011;15703;49.588;6.260;2023-05-16T12:43:19;3.72;;;1.08;;
28481;SDS011;15703;49.588;6.260;2023-05-16T12:45:48;3.85;;;1.15;;
28481;SDS011;15703;49.588;6.260;2023-05-16T12:48:12;3.78;;;1.10;;
28481;SDS011;15703;49.588;6.260;2023-05-16T12:50:38;5.13;;;1.23;;
28481;SDS011;15703;49.588;6.260;2023-05-16T12:53:04;2.08;;;1.15;;
28481;SDS011;15703;49.588;6.260;2023-05-16T12:55:32;5.05;;;1.45;;
28481;SDS011;15703;49.588;6.260;2023-05-16T12:58:06;5.50;;;0.77;;
28481;SDS011;15703;49.588;6.260;2023-05-16T13:00:32;3.88;;;1.05;;
28481;SDS011;15703;49.588;6.260;2023-05-16T13:06:12;4.40;;;1.00;;
28481;SDS011;15703;49.588;6.260;2023-05-16T13:09:02;3.30;;;1.10;;
28481;SDS011;15703;49.588;6.260;2023-05-16T13:11:28;3.92;;;1.00;;
28481;SDS011;15703;49.588;6.260;2023-05-16T13:13:51;2.35;;;1.10;;
28481;SDS011;15703;49.588;6.260;2023-05-16T13:16:24;5.90;;;1.33;;
28481;SDS011;15703;49.588;6.260;2023-05-16T13:18:46;1.83;;;0.88;;
28481;SDS011;15703;49.588;6.260;2023-05-16T13:21:09;3.10;;;1.13;;
28481;SDS011;15703;49.588;6.260;2023-05-16T13:24:16;2.92;;;1.13;;
28481;SDS011;15703;49.588;6.260;2023-05-16T13:26:43;2.50;;;1.00;;
28481;SDS011;15703;49.588;6.260;2023-05-16T13:29:06;3.58;;;0.95;;
28481;SDS011;15703;49.588;6.260;2023-05-16T13:31:31;1.88;;;0.85;;
28481;SDS011;15703;49.588;6.260;2023-05-16T13:33:54;2.90;;;1.10;;
28481;SDS011;15703;49.588;6.260;2023-05-16T13:36:20;5.40;;;1.40;;
28481;SDS011;15703;49.588;6.260;2023-05-16T13:38:42;1.92;;;1.05;;
28481;SDS011;15703;49.588;6.260;2023-05-16T13:41:05;2.55;;;0.98;;
28481;SDS011;15703;49.588;6.260;2023-05-16T13:43:39;3.42;;;0.95;;
28481;SDS011;15703;49.588;6.260;2023-05-16T13:46:02;2.08;;;0.80;;
28481;SDS011;15703;49.588;6.260;2023-05-16T13:48:24;2.75;;;0.90;;
28481;SDS011;15703;49.588;6.260;2023-05-16T13:50:51;4.63;;;1.15;;
28481;SDS011;15703;49.588;6.260;2023-05-16T13:53:29;2.38;;;1.10;;
28481;SDS011;15703;49.588;6.260;2023-05-16T13:58:58;2.60;;;0.75;;
28481;SDS011;15703;49.588;6.260;2023-05-16T14:01:27;5.00;;;1.17;;
28481;SDS011;15703;49.588;6.260;2023-05-16T14:12:25;4.25;;;1.30;;
28481;SDS011;15703;49.588;6.260;2023-05-16T14:15:01;2.53;;;0.90;;
28481;SDS011;15703;49.588;6.260;2023-05-16T14:18:02;3.17;;;0.90;;
28481;SDS011;15703;49.588;6.260;2023-05-16T14:20:33;7.10;;;1.38;;
28481;SDS011;15703;49.588;6.260;2023-05-16T14:23:21;2.28;;;1.20;;
28481;SDS011;15703;49.588;6.260;2023-05-16T14:29:35;2.45;;;1.00;;
28481;SDS011;15703;49.588;6.260;2023-05-16T14:46:05;3.38;;;1.08;;
28481;SDS011;15703;49.588;6.260;2023-05-16T14:48:28;3.45;;;1.23;;
28481;SDS011;15703;49.588;6.260;2023-05-16T14:52:18;2.90;;;1.30;;
28481;SDS011;15703;49.588;6.260;2023-05-16T14:54:31;4.68;;;1.40;;
28481;SDS011;15703;49.588;6.260;2023-05-16T14:57:41;3.97;;;1.05;;
28481;SDS011;15703;49.588;6.260;2023-05-16T15:00:06;2.65;;;1.13;;
28481;SDS011;15703;49.588;6.260;2023-05-16T15:03:01;3.90;;;1.20;;
28481;SDS011;15703;49.588;6.260;2023-05-16T15:06:01;1.85;;;0.90;;
28481;SDS011;15703;49.588;6.260;2023-05-16T15:08:28;2.40;;;0.93;;
28481;SDS011;15703;49.588;6.260;2023-05-16T15:11:35;3.90;;;1.00;;
28481;SDS011;15703;49.588;6.260;2023-05-16T15:33:56;1.65;;;0.90;;
28481;SDS011;15703;49.588;6.260;2023-05-16T15:36:27;3.70;;;1.10;;
28481;SDS011;15703;49.588;6.260;2023-05-16T15:38:59;2.83;;;0.88;;
28481;SDS011;15703;49.588;6.260;2023-05-16T15:41:24;2.70;;;1.10;;
28481;SDS011;15703;49.588;6.260;2023-05-16T15:44:26;3.50;;;1.25;;
28481;SDS011;15703;49.588;6.260;2023-05-16T15:46:49;3.45;;;1.13;;
28481;SDS011;15703;49.588;6.260;2023-05-16T15:49:12;2.28;;;1.20;;
28481;SDS011;15703;49.588;6.260;2023-05-16T15:52:20;2.83;;;1.17;;
28481;SDS011;15703;49.588;6.260;2023-05-16T15:55:06;3.10;;;1.10;;
28481;SDS011;15703;49.588;6.260;2023-05-16T15:57:29;2.38;;;0.93;;
28481;SDS011;15703;49.588;6.260;2023-05-16T15:59:55;3.28;;;0.90;;
28481;SDS011;15703;49.588;6.260;2023-05-16T16:02:34;1.67;;;0.98;;
28481;SDS011;15703;49.588;6.260;2023-05-16T16:05:01;3.15;;;1.23;;
28481;SDS011;15703;49.588;6.260;2023-05-16T16:10:24;3.65;;;1.20;;
28481;SDS011;15703;49.588;6.260;2023-05-16T16:20:11;3.95;;;1.77;;
28481;SDS011;15703;49.588;6.260;2023-05-16T16:22:57;4.45;;;1.45;;
28481;SDS011;15703;49.588;6.260;2023-05-16T16:25:29;3.05;;;1.27;;
28481;SDS011;15703;49.588;6.260;2023-05-16T16:28:01;1.92;;;1.10;;
28481;SDS011;15703;49.588;6.260;2023-05-16T16:30:42;2.58;;;1.30;;